Time,TemperatureF,DewpointF,PressureIn,WindDirection,WindDirectionDegrees,WindSpeedMPH,WindSpeedGustMPH,Humidity,HourlyPrecipIn,Conditions,Clouds,dailyrainin,SolarRadiationWatts/m^2,SoftwareType,DateUTC
2013-09-12 00:01:00,69.0,65.0,-100.00,SW,232,0.0,0.0,87,0.00,,,0.00,0.000000,,2013-09-12 04:01:00,
2013-09-12 00:24:00,69.0,65.0,-100.00,SW,232,0.0,0.0,87,0.00,,,0.00,0.000000,,2013-09-12 04:24:00,
2013-09-12 00:34:00,69.0,65.0,-100.00,SW,232,0.0,0.0,87,0.00,,,0.00,0.000000,,2013-09-12 04:34:00,
2013-09-12 00:44:00,69.0,65.0,-100.00,SW,232,0.0,0.0,87,0.00,,,0.00,0.000000,,2013-09-12 04:44:00,
2013-09-12 00:54:00,69.0,65.0,-100.00,SW,232,0.0,0.0,87,0.00,,,0.00,0.000000,,2013-09-12 04:54:00,
2013-09-12 01:01:00,70.0,67.0,-100.00,WNW,298,0.0,0.0,89,0.00,,,0.00,0.000000,,2013-09-12 05:01:00,
2013-09-12 01:43:00,70.0,67.0,-100.00,WNW,298,0.0,0.0,89,0.00,,,0.00,0.000000,,2013-09-12 05:43:00,
2013-09-12 01:53:00,70.0,67.0,-100.00,WNW,298,0.0,0.0,89,0.00,,,0.00,0.000000,,2013-09-12 05:53:00,
2013-09-12 02:01:00,69.0,65.0,-100.00,SSW,203,0.0,0.0,88,0.00,,,0.00,0.000000,,2013-09-12 06:01:00,
2013-09-12 02:42:00,69.0,65.0,-100.00,SSW,203,0.0,0.0,88,0.00,,,0.00,0.000000,,2013-09-12 06:42:00,
2013-09-12 02:52:00,69.0,65.0,-100.00,SSW,203,0.0,0.0,88,0.00,,,0.00,0.000000,,2013-09-12 06:52:00,
2013-09-12 03:01:00,67.0,65.0,-100.00,NNW,338,0.0,0.0,94,0.00,,,0.00,0.000000,,2013-09-12 07:01:00,
2013-09-12 03:22:00,67.0,65.0,-100.00,NNW,338,0.0,0.0,94,0.00,,,0.00,0.000000,,2013-09-12 07:22:00,
2013-09-12 03:32:00,67.0,65.0,-100.00,NNW,338,0.0,0.0,94,0.00,,,0.00,0.000000,,2013-09-12 07:32:00,
2013-09-12 03:44:00,67.0,65.0,-100.00,NNW,338,0.0,0.0,94,0.00,,,0.00,0.000000,,2013-09-12 07:44:00,
2013-09-12 03:52:00,67.0,65.0,-100.00,NNW,338,0.0,0.0,94,0.00,,,0.00,0.000000,,2013-09-12 07:52:00,
2013-09-12 04:01:00,67.0,65.0,-100.00,SSW,207,0.0,0.0,93,0.00,,,0.00,0.000000,,2013-09-12 08:01:00,
2013-09-12 04:22:00,67.0,65.0,-100.00,SSW,207,0.0,0.0,93,0.00,,,0.00,0.000000,,2013-09-12 08:22:00,
2013-09-12 04:32:00,67.0,65.0,-100.00,SSW,207,0.0,0.0,93,0.00,,,0.00,0.000000,,2013-09-12 08:32:00,
2013-09-12 04:42:00,67.0,65.0,-100.00,SSW,207,0.0,0.0,93,0.00,,,0.00,0.000000,,2013-09-12 08:42:00,
2013-09-12 04:52:00,67.0,65.0,-100.00,SSW,207,0.0,0.0,93,0.00,,,0.00,0.000000,,2013-09-12 08:52:00,
2013-09-12 05:01:00,66.0,65.0,-100.00,NNW,346,0.0,0.0,98,0.00,,,0.00,0.000000,,2013-09-12 09:01:00,
2013-09-12 05:22:00,66.0,65.0,-100.00,NNW,346,0.0,0.0,98,0.00,,,0.00,0.000000,,2013-09-12 09:22:00,
2013-09-12 05:33:00,66.0,65.0,-100.00,NNW,346,0.0,0.0,98,0.00,,,0.00,0.000000,,2013-09-12 09:33:00,
2013-09-12 05:43:00,66.0,65.0,-100.00,NNW,346,0.0,0.0,98,0.00,,,0.00,0.000000,,2013-09-12 09:43:00,
2013-09-12 05:53:00,66.0,65.0,-100.00,NNW,346,0.0,0.0,98,0.00,,,0.00,0.000000,,2013-09-12 09:53:00,
2013-09-12 06:01:00,65.0,64.0,-100.00,ENE,66,0.0,0.0,98,0.00,,,0.00,0.000000,,2013-09-12 10:01:00,
2013-09-12 06:43:00,65.0,64.0,-100.00,ENE,66,0.0,0.0,98,0.00,,,0.00,0.000000,,2013-09-12 10:43:00,
2013-09-12 06:53:00,65.0,64.0,-100.00,ENE,66,0.0,0.0,98,0.00,,,0.00,0.000000,,2013-09-12 10:53:00,
2013-09-12 07:01:00,65.0,64.0,-100.00,SE,139,0.0,0.0,98,0.00,,,0.00,0.000000,,2013-09-12 11:01:00,
2013-09-12 07:22:00,65.0,64.0,-100.00,SE,139,0.0,0.0,98,0.00,,,0.00,0.000000,,2013-09-12 11:22:00,
2013-09-12 07:33:00,65.0,64.0,-100.00,SE,139,0.0,0.0,98,0.00,,,0.00,0.000000,,2013-09-12 11:33:00,
2013-09-12 07:42:00,65.0,64.0,-100.00,SE,139,0.0,0.0,98,0.00,,,0.00,0.000000,,2013-09-12 11:42:00,
2013-09-12 07:52:00,65.0,64.0,-100.00,SE,139,0.0,0.0,98,0.00,,,0.00,0.000000,,2013-09-12 11:52:00,
2013-09-12 08:01:00,66.0,65.0,-100.00,NE,46,0.0,0.0,98,0.00,,,0.00,37.000000,,2013-09-12 12:01:00,
2013-09-12 08:22:00,66.0,65.0,-100.00,NE,46,0.0,0.0,98,0.00,,,0.00,37.000000,,2013-09-12 12:22:00,
2013-09-12 08:32:00,66.0,65.0,-100.00,NE,46,0.0,0.0,98,0.00,,,0.00,37.000000,,2013-09-12 12:32:00,
2013-09-12 08:42:00,66.0,65.0,-100.00,NE,46,0.0,0.0,98,0.00,,,0.00,37.000000,,2013-09-12 12:42:00,
2013-09-12 08:52:00,66.0,65.0,-100.00,NE,46,0.0,0.0,98,0.00,,,0.00,37.000000,,2013-09-12 12:52:00,
2013-09-12 09:01:00,68.0,67.0,-100.00,ENE,66,0.0,0.0,97,0.00,,,0.00,110.000000,,2013-09-12 13:01:00,
2013-09-12 09:22:00,68.0,67.0,-100.00,ENE,66,0.0,0.0,97,0.00,,,0.00,110.000000,,2013-09-12 13:22:00,
2013-09-12 09:32:00,68.0,67.0,-100.00,ENE,66,0.0,0.0,97,0.00,,,0.00,110.000000,,2013-09-12 13:32:00,
2013-09-12 09:42:00,68.0,67.0,-100.00,ENE,66,0.0,0.0,97,0.00,,,0.00,110.000000,,2013-09-12 13:42:00,
2013-09-12 09:52:00,68.0,67.0,-100.00,ENE,66,0.0,0.0,97,0.00,,,0.00,110.000000,,2013-09-12 13:52:00,
2013-09-12 10:01:00,71.0,67.0,-100.00,East,84,0.0,0.0,88,0.00,,,0.00,312.000000,,2013-09-12 14:01:00,
2013-09-12 10:42:00,71.0,67.0,-100.00,East,84,0.0,0.0,88,0.00,,,0.00,312.000000,,2013-09-12 14:42:00,
2013-09-12 10:52:00,71.0,67.0,-100.00,East,84,0.0,0.0,88,0.00,,,0.00,312.000000,,2013-09-12 14:52:00,
2013-09-12 12:01:00,80.0,68.0,-100.00,SW,228,0.0,0.0,68,-99.99,,,0.00,614.000000,,2013-09-12 16:01:00,
2013-09-12 12:23:00,80.0,68.0,-100.00,SW,228,0.0,0.0,68,-99.99,,,0.00,614.000000,,2013-09-12 16:23:00,
2013-09-12 12:33:00,80.0,68.0,-100.00,SW,228,0.0,0.0,68,-99.99,,,0.00,614.000000,,2013-09-12 16:33:00,
2013-09-12 12:43:00,80.0,68.0,-100.00,SW,228,0.0,0.0,68,-99.99,,,0.00,614.000000,,2013-09-12 16:43:00,
2013-09-12 12:53:00,80.0,68.0,-100.00,SW,228,0.0,0.0,68,-99.99,,,0.00,614.000000,,2013-09-12 16:53:00,
2013-09-12 13:01:00,80.0,67.0,-100.00,SSW,202,0.0,0.0,64,0.00,,,0.00,611.000000,,2013-09-12 17:01:00,
2013-09-12 13:43:00,80.0,67.0,-100.00,SSW,202,0.0,0.0,64,0.00,,,0.00,611.000000,,2013-09-12 17:43:00,
2013-09-12 13:54:00,80.0,67.0,-100.00,SSW,202,0.0,0.0,64,0.00,,,0.00,611.000000,,2013-09-12 17:54:00,
2013-09-12 14:01:00,81.0,70.0,-100.00,WSW,250,0.0,0.0,70,0.00,,,0.00,400.000000,,2013-09-12 18:01:00,
2013-09-12 14:22:00,81.0,70.0,-100.00,WSW,250,0.0,0.0,70,0.00,,,0.00,400.000000,,2013-09-12 18:22:00,
2013-09-12 14:32:00,81.0,70.0,-100.00,WSW,250,0.0,0.0,70,0.00,,,0.00,400.000000,,2013-09-12 18:32:00,
2013-09-12 14:42:00,81.0,70.0,-100.00,WSW,250,0.0,0.0,70,0.00,,,0.00,400.000000,,2013-09-12 18:42:00,
2013-09-12 14:52:00,81.0,70.0,-100.00,WSW,250,0.0,0.0,70,0.00,,,0.00,400.000000,,2013-09-12 18:52:00,
2013-09-12 15:01:00,81.0,68.0,-100.00,SW,220,0.0,0.0,65,0.00,,,0.00,419.000000,,2013-09-12 19:01:00,
2013-09-12 15:42:00,81.0,68.0,-100.00,SW,220,0.0,0.0,65,0.00,,,0.00,419.000000,,2013-09-12 19:42:00,
2013-09-12 15:52:00,81.0,68.0,-100.00,SW,220,0.0,0.0,65,0.00,,,0.00,419.000000,,2013-09-12 19:52:00,
2013-09-12 16:01:00,83.0,66.0,-100.00,WSW,257,0.0,0.0,56,0.00,,,0.00,504.000000,,2013-09-12 20:01:00,
2013-09-12 16:42:00,83.0,66.0,-100.00,WSW,257,0.0,0.0,56,0.00,,,0.00,504.000000,,2013-09-12 20:42:00,
2013-09-12 16:52:00,83.0,66.0,-100.00,WSW,257,0.0,0.0,56,0.00,,,0.00,504.000000,,2013-09-12 20:52:00,
2013-09-12 17:01:00,83.0,65.0,-100.00,SSW,213,0.0,0.0,55,0.00,,,0.00,432.000000,,2013-09-12 21:01:00,
2013-09-12 17:22:00,83.0,65.0,-100.00,SSW,213,0.0,0.0,55,0.00,,,0.00,432.000000,,2013-09-12 21:22:00,
2013-09-12 17:34:00,83.0,65.0,-100.00,SSW,213,0.0,0.0,55,0.00,,,0.00,432.000000,,2013-09-12 21:34:00,
2013-09-12 17:43:00,83.0,65.0,-100.00,SSW,213,0.0,0.0,55,0.00,,,0.00,432.000000,,2013-09-12 21:43:00,
2013-09-12 17:54:00,83.0,65.0,-100.00,SSW,213,0.0,0.0,55,0.00,,,0.00,432.000000,,2013-09-12 21:54:00,
2013-09-12 18:01:00,76.0,61.0,-100.00,NNW,330,4.0,14.0,59,0.00,,,0.00,220.000000,,2013-09-12 22:01:00,
2013-09-12 18:43:00,76.0,61.0,-100.00,NNW,330,4.0,14.0,59,0.00,,,0.00,220.000000,,2013-09-12 22:43:00,
2013-09-12 18:54:00,76.0,61.0,-100.00,NNW,330,4.0,14.0,59,0.00,,,0.00,220.000000,,2013-09-12 22:54:00,
2013-09-12 19:01:00,71.0,59.0,-100.00,SW,233,5.0,13.0,67,0.00,,,0.00,42.000000,,2013-09-12 23:01:00,
2013-09-12 19:43:00,71.0,59.0,-100.00,SW,233,5.0,13.0,67,0.00,,,0.00,42.000000,,2013-09-12 23:43:00,
2013-09-12 19:53:00,71.0,59.0,-100.00,SW,233,5.0,13.0,67,0.00,,,0.00,42.000000,,2013-09-12 23:53:00,
2013-09-12 20:01:00,70.0,60.0,-100.00,West,263,2.0,8.0,70,0.00,,,0.00,3.000000,,2013-09-13 00:01:00,
2013-09-12 20:22:00,70.0,60.0,-100.00,West,263,2.0,8.0,70,0.00,,,0.00,3.000000,,2013-09-13 00:22:00,
2013-09-12 20:32:00,70.0,60.0,-100.00,West,263,2.0,8.0,70,0.00,,,0.00,3.000000,,2013-09-13 00:32:00,
2013-09-12 20:42:00,70.0,60.0,-100.00,West,263,2.0,8.0,70,0.00,,,0.00,3.000000,,2013-09-13 00:42:00,
2013-09-12 20:52:00,70.0,60.0,-100.00,West,263,2.0,8.0,70,0.00,,,0.00,3.000000,,2013-09-13 00:52:00,
2013-09-12 21:01:00,70.0,60.0,-100.00,WNW,291,3.0,10.0,70,0.00,,,0.00,0.000000,,2013-09-13 01:01:00,
2013-09-12 21:42:00,70.0,60.0,-100.00,WNW,291,3.0,10.0,70,0.00,,,0.00,0.000000,,2013-09-13 01:42:00,
2013-09-12 21:53:00,70.0,60.0,-100.00,WNW,291,3.0,10.0,70,0.00,,,0.00,0.000000,,2013-09-13 01:53:00,
2013-09-12 22:01:00,69.0,60.0,-100.00,WSW,246,3.0,9.0,73,0.00,,,0.00,0.000000,,2013-09-13 02:01:00,
2013-09-12 22:43:00,69.0,60.0,-100.00,WSW,246,3.0,9.0,73,0.00,,,0.00,0.000000,,2013-09-13 02:43:00,
2013-09-12 22:53:00,69.0,60.0,-100.00,WSW,246,3.0,9.0,73,0.00,,,0.00,0.000000,,2013-09-13 02:53:00,
2013-09-12 23:01:00,68.0,60.0,-100.00,WSW,257,2.0,5.0,76,0.00,,,0.00,0.000000,,2013-09-13 03:01:00,
2013-09-12 23:22:00,68.0,60.0,-100.00,WSW,257,2.0,5.0,76,0.00,,,0.00,0.000000,,2013-09-13 03:22:00,
2013-09-12 23:34:00,68.0,60.0,-100.00,WSW,257,2.0,5.0,76,0.00,,,0.00,0.000000,,2013-09-13 03:34:00,
2013-09-12 23:45:00,68.0,60.0,-100.00,WSW,257,2.0,5.0,76,0.00,,,0.00,0.000000,,2013-09-13 03:45:00,
2013-09-12 23:55:00,68.0,60.0,-100.00,WSW,257,2.0,5.0,76,0.00,,,0.00,0.000000,,2013-09-13 03:55:00,